Time;durP1;ratioP1;P1;durP2;ratioP2;P2;SDS_P1;SDS_P2;PMS_P1;PMS_P2;Temp;Humidity;BMP_temperature;BMP_pressure;BME280_temperature;BME280_humidity;BME280_pressure;Samples;Min_cycle;Max_cycle;Signal;HPM_P1;HPM_P2
2022/05/17 00:03:02;;;;;;;;;;;;;;;13.80;75.05;101960.34;10486016;28;19924;-82
2022/05/17 00:08:03;;;;;;;;;;;;;;;13.96;73.39;101957.34;10456013;28;19982;-82
2022/05/17 00:13:05;;;;;;;;;;;;;;;14.11;75.01;101956.06;10490141;28;20383;-82
2022/05/17 00:18:07;;;;;;;;;;;;;;;13.85;76.05;101958.75;10498344;28;19920;-82
2022/05/17 00:23:09;;;;;;;;;;;;;;;13.87;76.56;101954.50;10513984;28;19924;-82
2022/05/17 00:28:11;;;;;;;;;;;;;;;13.76;76.30;101955.91;10513472;28;19978;-82
2022/05/17 00:33:12;;;;;;;;;;;;;;;13.79;76.88;101948.22;10496555;28;19928;-82
2022/05/17 00:38:14;;;;;;;;;;;;;;;14.04;73.69;101946.31;10488692;28;19950;-82
2022/05/17 00:43:29;;;;;;;;;;;;;;;14.06;74.00;101944.66;10495205;28;19925;-82
2022/05/17 00:48:31;;;;;;;;;;;;;;;13.66;75.60;101943.53;10479397;28;19989;-82
2022/05/17 00:53:34;;;;;;;;;;;;;;;13.44;76.49;101935.13;10495427;28;19924;-82
2022/05/17 00:58:41;;;;;;;;;;;;;;;13.72;76.69;101938.53;10494889;28;19924;-82
2022/05/17 01:03:42;;;;;;;;;;;;;;;13.78;76.05;101936.09;10496125;28;19936;-82
2022/05/17 01:08:44;;;;;;;;;;;;;;;13.29;78.58;101935.47;10495371;28;19930;-82
2022/05/17 01:19:07;;;;;;;;;;;;;;;13.43;78.88;101929.03;10495487;28;20027;-82
2022/05/17 01:24:09;;;;;;;;;;;;;;;13.69;76.79;101930.66;10495526;28;19924;-82
2022/05/17 01:29:11;;;;;;;;;;;;;;;13.91;76.15;101927.84;10493496;28;19930;-81
2022/05/17 01:34:13;;;;;;;;;;;;;;;14.06;75.95;101931.72;10494542;28;19925;-82
2022/05/17 01:39:14;;;;;;;;;;;;;;;14.13;76.42;101928.44;10494157;28;19978;-82
2022/05/17 01:44:16;;;;;;;;;;;;;;;14.19;75.39;101941.56;10494623;28;19924;-82
2022/05/17 01:49:17;;;;;;;;;;;;;;;13.63;76.21;101937.41;10493902;28;19921;-81
2022/05/17 01:54:19;;;;;;;;;;;;;;;13.79;76.48;101928.38;10492967;28;19983;-82
2022/05/17 01:59:20;;;;;;;;;;;;;;;13.59;77.31;101930.38;10509865;28;20318;-81
2022/05/17 02:04:22;;;;;;;;;;;;;;;13.91;75.99;101937.34;10478717;28;19978;-82
2022/05/17 02:09:24;;;;;;;;;;;;;;;13.95;75.50;101928.81;10494278;28;19924;-78
2022/05/17 02:14:26;;;;;;;;;;;;;;;13.95;75.66;101934.00;10481616;28;20316;-78
2022/05/17 02:19:29;;;;;;;;;;;;;;;13.94;75.79;101938.31;10497474;28;19925;-78
2022/05/17 02:24:31;;;;;;;;;;;;;;;13.92;76.07;101936.53;10498649;28;19966;-78
2022/05/17 02:29:32;;;;;;;;;;;;;;;13.94;75.73;101940.00;10498519;28;19921;-77
2022/05/17 02:34:36;;;;;;;;;;;;;;;14.04;75.69;101948.91;10498393;28;19924;-77
2022/05/17 02:39:38;;;;;;;;;;;;;;;13.95;76.05;101949.53;10497090;28;20295;-77
2022/05/17 02:44:40;;;;;;;;;;;;;;;13.86;77.27;101960.53;10498369;28;19921;-78
2022/05/17 02:49:44;;;;;;;;;;;;;;;13.90;76.62;101958.91;10496792;28;20425;-77
2022/05/17 02:54:46;;;;;;;;;;;;;;;13.67;77.01;101965.97;10498141;28;19924;-77
2022/05/17 02:59:47;;;;;;;;;;;;;;;13.71;77.03;101962.66;10498046;28;20034;-78
2022/05/17 03:04:49;;;;;;;;;;;;;;;13.58;77.88;101969.16;10513562;28;19924;-77
2022/05/17 03:09:50;;;;;;;;;;;;;;;13.52;78.54;101974.16;10496337;28;19920;-78
2022/05/17 03:14:52;;;;;;;;;;;;;;;13.67;77.47;101968.56;10496295;28;19924;-78
2022/05/17 03:19:54;;;;;;;;;;;;;;;13.35;79.43;101973.59;10500280;28;20291;-78
2022/05/17 03:24:55;;;;;;;;;;;;;;;13.55;78.14;101972.56;10504328;28;19982;-78
2022/05/17 03:30:17;;;;;;;;;;;;;;;13.74;78.19;101975.69;10520920;28;19927;-78
2022/05/17 03:35:19;;;;;;;;;;;;;;;13.76;76.93;101968.84;10484115;28;19970;-78
2022/05/17 03:40:21;;;;;;;;;;;;;;;13.68;77.48;101980.69;10462330;28;19920;-77
2022/05/17 03:45:22;;;;;;;;;;;;;;;13.66;77.35;101987.53;10463339;28;19921;-77
2022/05/17 03:50:25;;;;;;;;;;;;;;;13.55;78.21;101980.31;10461783;28;20354;-77
2022/05/17 03:55:26;;;;;;;;;;;;;;;13.55;78.82;101982.91;10462870;28;20434;-77
2022/05/17 04:00:28;;;;;;;;;;;;;;;13.61;78.58;101992.59;10461555;28;19947;-77
2022/05/17 04:05:30;;;;;;;;;;;;;;;13.86;77.52;101981.25;10461606;28;20008;-77
2022/05/17 04:10:31;;;;;;;;;;;;;;;14.28;75.89;101985.91;10492328;28;19924;-80
2022/05/17 04:15:32;;;;;;;;;;;;;;;14.50;75.70;101983.88;10518347;28;19998;-80
2022/05/17 04:20:34;;;;;;;;;;;;;;;14.74;74.82;101975.03;10518499;28;19924;-79
2022/05/17 04:25:36;;;;;;;;;;;;;;;14.78;75.21;101989.84;10503575;28;20363;-80
2022/05/17 04:30:37;;;;;;;;;;;;;;;14.87;75.43;101992.66;10499663;28;19930;-81
2022/05/17 04:35:39;;;;;;;;;;;;;;;15.07;75.53;101989.72;10518295;28;19921;-80
2022/05/17 04:40:41;;;;;;;;;;;;;;;15.07;75.67;101990.59;10502128;28;19946;-81
2022/05/17 04:45:44;;;;;;;;;;;;;;;15.17;76.06;101976.09;10502671;28;19931;-79
2022/05/17 04:50:46;;;;;;;;;;;;;;;15.39;75.28;101987.00;10500869;28;20019;-80
2022/05/17 04:56:04;;;;;;;;;;;;;;;15.37;75.47;101999.09;10501329;28;19921;-80
2022/05/17 05:01:06;;;;;;;;;;;;;;;15.36;75.97;101999.94;10483064;28;20314;-81
2022/05/17 05:06:07;;;;;;;;;;;;;;;15.74;74.84;102005.13;10516694;28;19920;-80
2022/05/17 05:11:08;;;;;;;;;;;;;;;15.84;75.05;102001.91;10499749;28;19921;-81
2022/05/17 05:16:11;;;;;;;;;;;;;;;15.85;75.46;102018.38;10500980;28;19920;-80
2022/05/17 05:21:16;;;;;;;;;;;;;;;15.74;75.69;102019.81;10500540;28;19920;-81
2022/05/17 05:26:18;;;;;;;;;;;;;;;15.99;75.68;102022.16;10500518;28;20341;-80
2022/05/17 05:31:19;;;;;;;;;;;;;;;16.18;75.00;102025.13;10497750;28;19928;-81
2022/05/17 05:36:21;;;;;;;;;;;;;;;16.15;75.00;102018.16;10493083;28;19921;-80
2022/05/17 05:41:23;;;;;;;;;;;;;;;16.83;73.52;102020.28;10513907;28;19989;-81
2022/05/17 05:46:24;;;;;;;;;;;;;;;16.18;74.75;102028.63;10515067;28;20338;-81
2022/05/17 05:51:26;;;;;;;;;;;;;;;16.39;74.82;102029.00;10497209;28;19931;-81
2022/05/17 05:56:28;;;;;;;;;;;;;;;16.62;73.91;102030.31;10498254;28;19925;-81
2022/05/17 06:01:30;;;;;;;;;;;;;;;16.73;73.99;102027.06;10514704;28;20310;-81
2022/05/17 06:06:35;;;;;;;;;;;;;;;17.15;72.77;102026.06;10493664;28;19928;-81
2022/05/17 06:11:37;;;;;;;;;;;;;;;17.02;73.78;102034.53;10489696;28;19926;-81
2022/05/17 06:16:41;;;;;;;;;;;;;;;17.27;73.38;102041.03;10481307;28;20003;-81
2022/05/17 06:21:42;;;;;;;;;;;;;;;17.06;73.16;102052.84;10496776;28;19994;-80
2022/05/17 06:26:44;;;;;;;;;;;;;;;17.00;72.97;102055.34;10476884;28;19978;-81
2022/05/17 06:31:45;;;;;;;;;;;;;;;17.26;72.88;102057.50;10479960;28;19986;-82
2022/05/17 06:36:47;;;;;;;;;;;;;;;17.24;72.25;102054.00;10483977;28;20430;-81
2022/05/17 06:41:56;;;;;;;;;;;;;;;17.98;70.77;102055.16;10490779;28;19966;-81
2022/05/17 06:47:01;;;;;;;;;;;;;;;18.03;69.75;102063.91;10488406;28;19924;-81
2022/05/17 06:52:03;;;;;;;;;;;;;;;17.86;70.59;102061.03;10483929;28;19994;-81
2022/05/17 06:57:06;;;;;;;;;;;;;;;18.09;69.23;102065.72;10498092;28;19920;-81
2022/05/17 07:02:08;;;;;;;;;;;;;;;18.27;69.08;102070.31;10487934;28;19977;-81
2022/05/17 07:07:10;;;;;;;;;;;;;;;18.49;68.39;102073.19;10497712;28;19920;-81
2022/05/17 07:17:31;;;;;;;;;;;;;;;18.91;67.00;102079.72;10497726;28;19974;-81
2022/05/17 07:22:32;;;;;;;;;;;;;;;19.27;64.38;102078.31;10510392;28;19924;-81
2022/05/17 07:27:34;;;;;;;;;;;;;;;19.27;64.97;102078.31;10493812;28;19925;-81
2022/05/17 07:32:36;;;;;;;;;;;;;;;19.61;64.50;102068.16;10491964;28;19924;-81
2022/05/17 07:37:37;;;;;;;;;;;;;;;19.50;64.73;102075.91;10487742;28;19921;-81
2022/05/17 07:42:40;;;;;;;;;;;;;;;19.06;64.98;102091.19;10493371;28;20014;-80
2022/05/17 07:47:41;;;;;;;;;;;;;;;19.11;65.99;102092.09;10494560;28;19927;-81
2022/05/17 07:52:43;;;;;;;;;;;;;;;19.29;63.55;102099.22;10498709;28;19924;-81
2022/05/17 07:57:44;;;;;;;;;;;;;;;19.42;63.41;102102.84;10499588;28;19920;-82
2022/05/17 08:02:46;;;;;;;;;;;;;;;19.81;61.96;102104.00;10494054;28;19970;-82
2022/05/17 08:07:48;;;;;;;;;;;;;;;19.51;63.04;102110.75;10498167;28;19924;-82
2022/05/17 08:12:50;;;;;;;;;;;;;;;19.81;64.10;102101.38;10514300;28;19920;-81
2022/05/17 08:17:53;;;;;;;;;;;;;;;19.62;58.11;102111.69;10498151;28;20342;-82
2022/05/17 08:22:54;;;;;;;;;;;;;;;19.74;57.20;102115.28;10496019;28;19921;-82
2022/05/17 08:27:56;;;;;;;;;;;;;;;19.81;58.84;102111.84;10494959;28;19994;-82
2022/05/17 08:33:14;;;;;;;;;;;;;;;19.67;56.53;102114.34;10465980;28;20413;-82
2022/05/17 08:38:18;;;;;;;;;;;;;;;20.06;57.83;102105.06;10488698;28;20359;-82
2022/05/17 08:43:28;;;;;;;;;;;;;;;20.06;55.93;102112.03;10493126;28;20330;-81
2022/05/17 08:48:33;;;;;;;;;;;;;;;20.33;56.11;102113.03;10482602;28;19924;-81
2022/05/17 08:53:35;;;;;;;;;;;;;;;20.39;58.03;102100.84;10496027;28;20338;-82
2022/05/17 08:58:38;;;;;;;;;;;;;;;20.59;59.93;102098.28;10496443;28;19924;-81
2022/05/17 09:03:52;;;;;;;;;;;;;;;19.81;58.58;102117.94;10476805;28;19924;-81
2022/05/17 09:09:06;;;;;;;;;;;;;;;19.70;59.52;102119.63;10477416;28;20379;-82
2022/05/17 09:14:14;;;;;;;;;;;;;;;19.58;57.39;102125.63;10493046;28;19995;-81
2022/05/17 09:19:21;;;;;;;;;;;;;;;20.10;58.20;102098.09;10494831;28;19928;-82
2022/05/17 09:24:25;;;;;;;;;;;;;;;20.31;58.03;102104.28;10510503;28;19947;-80
2022/05/17 09:29:35;;;;;;;;;;;;;;;20.65;55.56;102101.81;10483588;28;20389;-82
2022/05/17 09:34:41;;;;;;;;;;;;;;;20.98;54.74;102103.69;10477081;28;19925;-82
2022/05/17 09:39:46;;;;;;;;;;;;;;;21.07;54.60;102102.81;10493485;28;19924;-81
2022/05/17 09:44:49;;;;;;;;;;;;;;;20.94;56.96;102108.91;10493327;28;19928;-82
2022/05/17 09:55:21;;;;;;;;;;;;;;;20.80;56.08;102107.13;10493664;28;19920;-81
2022/05/17 10:00:26;;;;;;;;;;;;;;;20.90;52.94;102119.34;10484218;28;20391;-81
2022/05/17 10:05:44;;;;;;;;;;;;;;;20.98;55.47;102110.63;10489494;28;19920;-81
2022/05/17 10:10:47;;;;;;;;;;;;;;;21.02;54.45;102112.41;10492737;28;20463;-81
2022/05/17 10:15:54;;;;;;;;;;;;;;;21.43;53.61;102105.44;10496357;28;19926;-81
2022/05/17 10:20:59;;;;;;;;;;;;;;;20.66;55.42;102108.81;10508954;28;19964;-81
2022/05/17 10:26:09;;;;;;;;;;;;;;;21.33;55.17;102099.34;10509767;28;19924;-82
2022/05/17 10:31:18;;;;;;;;;;;;;;;21.27;55.46;102094.06;10491133;28;19920;-81
2022/05/17 10:36:25;;;;;;;;;;;;;;;21.20;54.45;102093.22;10498858;28;20443;-81
2022/05/17 10:41:26;;;;;;;;;;;;;;;20.44;56.26;102093.00;10492374;28;19999;-81
2022/05/17 10:46:30;;;;;;;;;;;;;;;21.20;57.40;102098.44;10508736;28;19931;-81
2022/05/17 10:51:38;;;;;;;;;;;;;;;21.26;56.80;102097.59;10492835;28;19928;-80
2022/05/17 10:56:49;;;;;;;;;;;;;;;20.26;58.44;102089.47;10492041;28;19952;-81
2022/05/17 11:02:00;;;;;;;;;;;;;;;20.26;57.87;102096.41;10492648;28;19920;-81
2022/05/17 11:07:07;;;;;;;;;;;;;;;21.12;57.10;102093.19;10491198;28;20355;-81
2022/05/17 11:12:10;;;;;;;;;;;;;;;20.83;57.87;102091.41;10463604;28;20368;-82
2022/05/17 11:17:26;;;;;;;;;;;;;;;21.55;56.86;102082.72;10468173;28;20337;-80
2022/05/17 11:22:33;;;;;;;;;;;;;;;22.53;53.68;102074.59;10487623;28;19996;-81
2022/05/17 11:27:53;;;;;;;;;;;;;;;22.35;55.42;102071.13;10450983;28;19979;-81
2022/05/17 11:33:06;;;;;;;;;;;;;;;22.39;54.59;102066.75;10451029;28;19925;-80
2022/05/17 11:38:08;;;;;;;;;;;;;;;22.33;53.19;102067.66;10466361;28;19932;-80
2022/05/17 11:48:52;;;;;;;;;;;;;;;23.19;52.63;102048.75;10458582;28;20300;-80
2022/05/17 11:53:54;;;;;;;;;;;;;;;23.65;52.73;102039.53;10457064;28;19990;-80
2022/05/17 11:58:57;;;;;;;;;;;;;;;24.07;51.18;102039.97;10458175;28;19928;-79
2022/05/17 12:04:01;;;;;;;;;;;;;;;24.67;50.62;102035.66;10456534;28;19928;-82
2022/05/17 12:09:05;;;;;;;;;;;;;;;24.66;48.45;102029.53;10457472;28;19928;-80
2022/05/17 12:14:13;;;;;;;;;;;;;;;23.19;51.59;102035.63;10484969;28;19921;-80
2022/05/17 12:19:35;;;;;;;;;;;;;;;22.86;50.55;102035.81;10496877;28;20019;-80
2022/05/17 12:24:37;;;;;;;;;;;;;;;22.69;52.85;102022.81;10495472;28;20015;-80
2022/05/17 12:35:05;;;;;;;;;;;;;;;24.82;50.05;102002.94;10490163;28;19920;-79
2022/05/17 12:45:28;;;;;;;;;;;;;;;23.54;49.01;102001.06;10519321;28;19967;-84
2022/05/17 12:50:39;;;;;;;;;;;;;;;23.60;51.41;101997.50;10496084;28;19928;-83
2022/05/17 12:55:55;;;;;;;;;;;;;;;23.70;53.28;101990.38;10499435;28;19959;-81
2022/05/17 13:00:59;;;;;;;;;;;;;;;23.22;50.34;101994.41;10496499;28;20015;-81
2022/05/17 13:06:02;;;;;;;;;;;;;;;23.44;52.89;101991.56;10499393;28;19920;-81
2022/05/17 13:11:07;;;;;;;;;;;;;;;23.57;49.24;101987.91;10517304;28;19926;-83
2022/05/17 13:16:13;;;;;;;;;;;;;;;23.84;48.94;101991.06;10496854;28;19924;-82
2022/05/17 13:21:23;;;;;;;;;;;;;;;23.88;50.06;101981.38;10473390;28;20313;-82
2022/05/17 13:26:26;;;;;;;;;;;;;;;24.29;51.42;101985.25;10467836;28;19931;-81
2022/05/17 13:31:28;;;;;;;;;;;;;;;24.36;50.31;101968.47;10495542;28;20280;-81
2022/05/17 13:36:32;;;;;;;;;;;;;;;24.31;49.19;101978.19;10494565;28;19931;-82
2022/05/17 13:41:41;;;;;;;;;;;;;;;24.01;48.20;101975.13;10475002;28;19921;-82
2022/05/17 13:46:47;;;;;;;;;;;;;;;24.08;48.36;101974.16;10472899;28;19935;-84
2022/05/17 13:51:49;;;;;;;;;;;;;;;24.13;48.91;101962.66;10458052;28;19955;-83
2022/05/17 13:57:03;;;;;;;;;;;;;;;23.89;48.97;101956.81;10459295;28;19920;-85
2022/05/17 14:02:12;;;;;;;;;;;;;;;24.10;46.42;101954.81;10460797;28;19925;-84
2022/05/17 14:07:17;;;;;;;;;;;;;;;24.37;46.65;101951.78;10456490;28;19921;-84
2022/05/17 14:12:26;;;;;;;;;;;;;;;24.87;48.05;101940.47;10455434;28;19920;-81
2022/05/17 14:17:28;;;;;;;;;;;;;;;24.33;46.75;101934.28;10491576;28;19928;-83
2022/05/17 14:22:30;;;;;;;;;;;;;;;24.35;47.70;101935.13;10514123;28;20022;-84
2022/05/17 14:27:32;;;;;;;;;;;;;;;24.27;48.69;101931.75;10497757;28;20272;-81
2022/05/17 14:32:33;;;;;;;;;;;;;;;25.04;49.70;101937.50;10502680;28;19920;-80
2022/05/17 14:37:35;;;;;;;;;;;;;;;24.38;48.31;101924.56;10499702;28;20291;-81
2022/05/17 14:42:37;;;;;;;;;;;;;;;24.54;46.69;101929.56;10480263;28;19943;-82
2022/05/17 14:47:55;;;;;;;;;;;;;;;24.80;47.69;101913.34;10494926;28;20420;-81
2022/05/17 14:52:57;;;;;;;;;;;;;;;24.93;49.90;101898.16;10496449;28;19920;-81
2022/05/17 14:57:59;;;;;;;;;;;;;;;24.60;46.55;101897.88;10498360;28;19924;-84
2022/05/17 15:03:04;;;;;;;;;;;;;;;24.61;46.22;101889.03;10497863;28;19925;-85
2022/05/17 15:08:09;;;;;;;;;;;;;;;24.47;44.93;101884.03;10457559;28;19920;-82
2022/05/17 15:13:10;;;;;;;;;;;;;;;24.50;43.46;101880.47;10460710;28;19948;-83
2022/05/17 15:18:14;;;;;;;;;;;;;;;24.84;43.85;101877.25;10498489;28;20365;-80
2022/05/17 15:23:36;;;;;;;;;;;;;;;24.30;45.05;101863.25;10506204;28;19946;-81
2022/05/17 15:28:37;;;;;;;;;;;;;;;24.21;46.70;101863.38;10482715;28;19927;-84
2022/05/17 15:33:39;;;;;;;;;;;;;;;24.08;46.53;101863.59;10492763;28;19924;-88
2022/05/17 15:38:41;;;;;;;;;;;;;;;24.31;46.98;101867.59;10502098;28;19950;-84
2022/05/17 15:43:42;;;;;;;;;;;;;;;24.67;45.60;101872.28;10490538;28;19981;-84
2022/05/17 15:54:04;;;;;;;;;;;;;;;24.27;47.78;101844.84;10460704;28;19925;-86
2022/05/17 15:59:07;;;;;;;;;;;;;;;24.21;46.42;101839.69;10479603;28;19978;-83
2022/05/17 16:09:30;;;;;;;;;;;;;;;23.79;47.08;101844.69;10500973;28;19924;-86
2022/05/17 16:14:32;;;;;;;;;;;;;;;24.15;47.29;101845.06;10505307;28;19981;-82
2022/05/17 16:19:40;;;;;;;;;;;;;;;24.35;46.87;101832.44;10521973;28;19920;-81
2022/05/17 16:24:42;;;;;;;;;;;;;;;24.25;48.80;101833.47;10504285;28;19920;-82
2022/05/17 16:29:44;;;;;;;;;;;;;;;24.04;49.32;101821.53;10493105;28;20038;-83
2022/05/17 16:34:46;;;;;;;;;;;;;;;24.03;47.71;101819.78;10487960;28;20321;-83
2022/05/17 16:39:47;;;;;;;;;;;;;;;23.70;48.80;101815.00;10472621;28;19978;-85
2022/05/17 16:44:49;;;;;;;;;;;;;;;24.01;50.18;101804.03;10478262;28;19925;-83
2022/05/17 16:49:50;;;;;;;;;;;;;;;23.82;48.25;101815.69;10496586;28;20337;-86
2022/05/17 16:54:52;;;;;;;;;;;;;;;23.86;49.33;101812.13;10501902;28;20375;-85
2022/05/17 16:59:53;;;;;;;;;;;;;;;24.02;49.83;101811.00;10499500;28;19920;-83
2022/05/17 17:04:55;;;;;;;;;;;;;;;23.82;51.54;101808.69;10494701;28;19920;-81
2022/05/17 17:09:57;;;;;;;;;;;;;;;23.45;52.13;101810.06;10497206;28;19920;-84
2022/05/17 17:14:58;;;;;;;;;;;;;;;23.42;51.55;101798.72;10464415;28;20375;-84
2022/05/17 17:20:02;;;;;;;;;;;;;;;23.45;51.23;101806.59;10457268;28;19971;-85
2022/05/17 17:25:04;;;;;;;;;;;;;;;23.22;51.54;101812.13;10472671;28;19927;-85
2022/05/17 17:30:07;;;;;;;;;;;;;;;23.03;53.00;101817.59;10476687;28;19924;-83
2022/05/17 17:40:46;;;;;;;;;;;;;;;22.84;53.20;101811.66;10444784;28;19928;-82
2022/05/17 17:45:50;;;;;;;;;;;;;;;22.79;53.14;101806.47;10496663;28;19950;-83
2022/05/17 17:50:52;;;;;;;;;;;;;;;22.90;54.19;101810.72;10519876;28;19920;-80
2022/05/17 17:55:53;;;;;;;;;;;;;;;22.80;53.57;101816.09;10460377;28;19920;-82
2022/05/17 18:00:57;;;;;;;;;;;;;;;22.66;53.63;101820.63;10477669;28;19936;-84
2022/05/17 18:05:58;;;;;;;;;;;;;;;22.64;54.75;101815.34;10497818;28;19927;-79
2022/05/17 18:11:05;;;;;;;;;;;;;;;22.47;54.56;101828.66;10498027;28;19924;-82
2022/05/17 18:16:07;;;;;;;;;;;;;;;22.33;54.86;101830.50;10496934;28;20425;-80
2022/05/17 18:21:08;;;;;;;;;;;;;;;22.14;54.99;101824.53;10498240;28;19921;-82
2022/05/17 18:26:14;;;;;;;;;;;;;;;21.98;55.74;101823.78;10493003;28;19924;-82
2022/05/17 18:31:19;;;;;;;;;;;;;;;21.69;55.83;101819.59;10490624;28;19920;-84
2022/05/17 18:36:25;;;;;;;;;;;;;;;21.54;56.41;101821.41;10496985;28;19924;-84
2022/05/17 18:41:28;;;;;;;;;;;;;;;21.63;57.00;101823.13;10504815;28;19982;-80
2022/05/17 18:46:32;;;;;;;;;;;;;;;21.47;56.87;101822.31;10457854;28;20376;-80
2022/05/17 18:51:34;;;;;;;;;;;;;;;21.41;57.13;101817.06;10457437;28;20279;-80
2022/05/17 18:56:36;;;;;;;;;;;;;;;21.48;57.24;101818.78;10458471;28;19928;-80
2022/05/17 19:01:37;;;;;;;;;;;;;;;21.08;57.85;101814.59;10476089;28;19924;-83
2022/05/17 19:06:41;;;;;;;;;;;;;;;21.04;57.72;101812.88;10480196;28;19921;-85
2022/05/17 19:17:03;;;;;;;;;;;;;;;20.90;58.37;101810.28;10455900;28;20276;-85
2022/05/17 19:22:10;;;;;;;;;;;;;;;20.96;58.54;101813.78;10492298;28;20302;-82
2022/05/17 19:27:13;;;;;;;;;;;;;;;20.77;59.12;101814.66;10463918;28;20007;-83
2022/05/17 19:32:23;;;;;;;;;;;;;;;20.72;59.71;101818.16;10487651;28;20375;-80
2022/05/17 19:42:48;;;;;;;;;;;;;;;20.61;59.69;101824.28;10492777;28;19959;-83
2022/05/17 19:47:52;;;;;;;;;;;;;;;20.50;60.14;101831.28;10469790;28;19952;-83
2022/05/17 19:52:53;;;;;;;;;;;;;;;20.37;60.44;101829.50;10451020;28;19943;-81
2022/05/17 19:57:55;;;;;;;;;;;;;;;20.34;60.49;101826.91;10451011;28;19928;-84
2022/05/17 20:02:58;;;;;;;;;;;;;;;20.40;60.54;101829.53;10507391;28;19958;-81
2022/05/17 20:08:00;;;;;;;;;;;;;;;20.31;60.86;101837.38;10486078;28;19920;-82
2022/05/17 20:13:02;;;;;;;;;;;;;;;20.31;60.87;101834.75;10499325;28;19924;-80
2022/05/17 20:18:05;;;;;;;;;;;;;;;20.16;61.04;101846.97;10489431;28;19921;-79
2022/05/17 20:23:14;;;;;;;;;;;;;;;20.07;61.71;101844.31;10491707;28;20358;-78
2022/05/17 20:28:19;;;;;;;;;;;;;;;20.00;62.18;101839.94;10491922;28;19928;-79
2022/05/17 20:33:25;;;;;;;;;;;;;;;20.02;62.06;101835.59;10492618;28;20265;-79
2022/05/17 20:38:27;;;;;;;;;;;;;;;19.85;62.67;101836.44;10511591;28;19974;-80
2022/05/17 20:43:31;;;;;;;;;;;;;;;19.87;62.86;101853.03;10491896;28;19920;-79
2022/05/17 20:48:33;;;;;;;;;;;;;;;19.79;62.72;101849.47;10495171;28;19966;-79
2022/05/17 20:53:36;;;;;;;;;;;;;;;19.75;63.16;101859.06;10498482;28;19921;-79
2022/05/17 20:58:37;;;;;;;;;;;;;;;19.59;63.92;101850.31;10493186;28;19924;-79
2022/05/17 21:03:40;;;;;;;;;;;;;;;19.51;64.06;101846.78;10511002;28;19920;-81
2022/05/17 21:08:42;;;;;;;;;;;;;;;19.50;64.12;101850.25;10490308;28;20053;-79
2022/05/17 21:13:44;;;;;;;;;;;;;;;19.33;64.95;101843.22;10490450;28;19920;-79
2022/05/17 21:18:45;;;;;;;;;;;;;;;19.26;64.94;101841.44;10474078;28;20193;-80
2022/05/17 21:23:49;;;;;;;;;;;;;;;19.26;65.34;101851.03;10489114;28;19924;-80
2022/05/17 21:28:50;;;;;;;;;;;;;;;19.23;65.35;101845.78;10486928;28;19951;-79
2022/05/17 21:33:52;;;;;;;;;;;;;;;19.13;65.89;101853.59;10482438;28;19951;-79
2022/05/17 21:38:53;;;;;;;;;;;;;;;18.99;66.09;101848.28;10490506;28;19978;-80
2022/05/17 21:43:55;;;;;;;;;;;;;;;18.97;66.57;101842.16;10493594;28;19920;-79
2022/05/17 21:48:57;;;;;;;;;;;;;;;18.89;66.70;101838.59;10501130;28;19920;-79
2022/05/17 21:53:58;;;;;;;;;;;;;;;18.90;66.95;101831.66;10497707;28;19924;-79
2022/05/17 21:59:09;;;;;;;;;;;;;;;18.75;67.69;101824.59;10487332;28;19920;-78
2022/05/17 22:04:11;;;;;;;;;;;;;;;18.88;67.39;101836.84;10501367;28;20027;-79
2022/05/17 22:09:13;;;;;;;;;;;;;;;18.64;67.70;101838.44;10478700;28;19924;-80
2022/05/17 22:14:14;;;;;;;;;;;;;;;18.66;67.85;101843.69;10496655;28;19924;-81
2022/05/17 22:19:16;;;;;;;;;;;;;;;18.73;67.55;101842.00;10500866;28;19921;-80
2022/05/17 22:24:21;;;;;;;;;;;;;;;18.52;68.39;101835.72;10498082;28;19921;-80
2022/05/17 22:29:23;;;;;;;;;;;;;;;18.65;68.26;101832.34;10500750;28;19924;-79
2022/05/17 22:34:29;;;;;;;;;;;;;;;18.59;68.16;101837.53;10506520;28;19943;-79
2022/05/17 22:39:30;;;;;;;;;;;;;;;18.51;68.75;101833.97;10503511;28;19920;-80
2022/05/17 22:49:52;;;;;;;;;;;;;;;18.50;68.79;101832.25;10503251;28;20268;-79
2022/05/17 22:54:53;;;;;;;;;;;;;;;18.37;69.04;101831.28;10502989;28;19928;-79
2022/05/17 22:59:55;;;;;;;;;;;;;;;18.34;68.74;101832.13;10517362;28;19927;-79
2022/05/17 23:04:56;;;;;;;;;;;;;;;18.33;69.14;101834.69;10486522;28;19920;-79
2022/05/17 23:09:58;;;;;;;;;;;;;;;18.20;69.48;101823.31;10472371;28;19920;-79
2022/05/17 23:14:59;;;;;;;;;;;;;;;18.51;68.58;101828.75;10460737;28;20331;-79
2022/05/17 23:20:01;;;;;;;;;;;;;;;18.30;69.14;101839.91;10480374;28;20418;-79
2022/05/17 23:30:23;;;;;;;;;;;;;;;18.22;68.88;101829.41;10497354;28;19921;-79
2022/05/17 23:35:26;;;;;;;;;;;;;;;18.04;69.75;101837.91;10483279;28;19966;-79
2022/05/17 23:40:27;;;;;;;;;;;;;;;17.90;70.14;101846.44;10487035;28;20434;-79
2022/05/17 23:45:29;;;;;;;;;;;;;;;18.06;69.59;101842.28;10487669;28;19980;-79
2022/05/17 23:50:32;;;;;;;;;;;;;;;17.96;70.08;101850.91;10488646;28;19920;-79
2022/05/17 23:55:36;;;;;;;;;;;;;;;17.94;70.03;101846.50;10494059;28;19942;-79
